Time;durP1;ratioP1;P1;durP2;ratioP2;P2;SDS_P1;SDS_P2;PMS_P1;PMS_P2;Temp;Humidity;BMP_temperature;BMP_pressure;BME280_temperature;BME280_humidity;BME280_pressure;Samples;Min_cycle;Max_cycle;Signal;HPM_P1;HPM_P2
2023/04/14 00:00:56;;;;;;;1.00;0.90;;;6.60;99.90;;;;;;5009637;28;20045;-62
2023/04/14 00:03:21;;;;;;;0.10;0.10;;;6.60;99.90;;;;;;5017331;28;20092;-62
2023/04/14 00:05:47;;;;;;;0.10;0.10;;;6.50;99.90;;;;;;5011895;28;20541;-62
2023/04/14 00:08:13;;;;;;;0.10;0.10;;;6.60;99.90;;;;;;5016380;28;20401;-62
2023/04/14 00:10:38;;;;;;;0.10;0.10;;;6.70;99.90;;;;;;5008425;28;20049;-62
2023/04/14 00:13:04;;;;;;;0.30;0.30;;;6.50;99.90;;;;;;5011067;28;20041;-62
2023/04/14 00:15:29;;;;;;;1.08;1.08;;;6.50;99.90;;;;;;5010460;28;20166;-61
2023/04/14 00:17:55;;;;;;;0.10;0.10;;;6.50;99.90;;;;;;5012036;28;20053;-62
2023/04/14 00:20:20;;;;;;;0.10;0.10;;;6.50;99.90;;;;;;5011173;28;20077;-62
2023/04/14 00:22:46;;;;;;;0.10;0.10;;;6.40;99.90;;;;;;5012122;28;20088;-62
2023/04/14 00:25:11;;;;;;;0.10;0.10;;;6.40;99.90;;;;;;5010273;28;20038;-62
2023/04/14 00:27:37;;;;;;;0.10;0.10;;;6.40;99.90;;;;;;5022414;28;20041;-62
2023/04/14 00:30:04;;;;;;;0.10;0.10;;;6.40;99.90;;;;;;5010945;28;20096;-62
2023/04/14 00:32:29;;;;;;;0.10;0.10;;;6.30;99.90;;;;;;5022216;28;20045;-62
2023/04/14 00:34:55;;;;;;;0.13;0.13;;;6.20;99.90;;;;;;5014217;28;20088;-62
2023/04/14 00:37:22;;;;;;;0.10;0.10;;;6.10;99.90;;;;;;5010176;28;20045;-62
2023/04/14 00:39:47;;;;;;;0.10;0.10;;;6.10;99.90;;;;;;5016813;28;20046;-62
2023/04/14 00:42:13;;;;;;;0.13;0.13;;;6.10;99.90;;;;;;5021873;28;20050;-62
2023/04/14 00:44:38;;;;;;;0.10;0.10;;;6.10;99.90;;;;;;5017402;28;20056;-62
2023/04/14 00:47:04;;;;;;;0.10;0.10;;;6.10;99.90;;;;;;5016627;28;20125;-62
2023/04/14 00:49:30;;;;;;;0.10;0.10;;;6.10;99.90;;;;;;5021458;28;20041;-62
2023/04/14 00:51:56;;;;;;;0.20;0.20;;;6.00;99.90;;;;;;5011426;28;20107;-62
2023/04/14 00:54:23;;;;;;;0.40;0.40;;;6.10;99.90;;;;;;5017528;28;20180;-62
2023/04/14 00:56:50;;;;;;;0.03;0.03;;;6.00;99.90;;;;;;5016970;28;20040;-62
2023/04/14 00:59:17;;;;;;;0.10;0.10;;;6.10;99.90;;;;;;5025980;28;20071;-62
2023/04/14 01:01:43;;;;;;;0.10;0.10;;;6.20;99.90;;;;;;5019179;28;20481;-62
2023/04/14 01:04:08;;;;;;;0.10;0.10;;;6.20;99.90;;;;;;5011881;28;20053;-62
2023/04/14 01:06:35;;;;;;;0.73;0.73;;;6.20;99.90;;;;;;5010140;28;20077;-62
2023/04/14 01:09:01;;;;;;;0.85;0.85;;;6.20;99.90;;;;;;5010103;28;20405;-62
2023/04/14 01:11:34;;;;;;;0.10;0.10;;;6.20;99.90;;;;;;5013034;28;20052;-62
2023/04/14 01:14:32;;;;;;;0.10;0.10;;;6.30;99.90;;;;;;5017534;28;20441;-62
2023/04/14 01:17:14;;;;;;;0.10;0.10;;;6.30;99.90;;;;;;5009567;28;20038;-62
2023/04/14 01:20:07;;;;;;;0.10;0.10;;;6.20;99.90;;;;;;5009835;28;20045;-62
2023/04/14 01:22:37;;;;;;;0.10;0.10;;;6.20;99.90;;;;;;5009653;28;20128;-62
2023/04/14 01:25:12;;;;;;;0.10;0.10;;;6.10;99.90;;;;;;5010771;28;20046;-62
2023/04/14 01:28:14;;;;;;;0.10;0.10;;;6.20;99.90;;;;;;5020306;28;20044;-62
2023/04/14 01:31:07;;;;;;;0.10;0.10;;;6.20;99.90;;;;;;5016655;28;20428;-62
2023/04/14 01:33:37;;;;;;;0.03;0.03;;;6.10;99.90;;;;;;5009277;28;20052;-62
2023/04/14 01:36:07;;;;;;;0.10;0.10;;;6.10;99.90;;;;;;5010032;28;20083;-62
2023/04/14 01:38:35;;;;;;;0.10;0.10;;;6.20;99.90;;;;;;5016525;28;20038;-62
2023/04/14 01:41:06;;;;;;;0.10;0.10;;;6.20;99.90;;;;;;5026560;28;20056;-62
2023/04/14 01:43:36;;;;;;;0.20;0.20;;;6.20;99.90;;;;;;5016344;28;20477;-62
2023/04/14 01:46:11;;;;;;;0.10;0.10;;;6.10;99.90;;;;;;5020241;28;20045;-62
2023/04/14 01:48:37;;;;;;;0.10;0.10;;;6.10;99.90;;;;;;5009634;28;20057;-62
2023/04/14 01:51:05;;;;;;;0.10;0.10;;;6.10;99.90;;;;;;5017119;28;20062;-62
2023/04/14 01:53:32;;;;;;;0.10;0.10;;;6.10;99.90;;;;;;5009932;28;20042;-62
2023/04/14 01:55:59;;;;;;;0.10;0.10;;;6.10;99.90;;;;;;5009590;28;20440;-62
2023/04/14 01:58:27;;;;;;;0.10;0.10;;;6.10;99.90;;;;;;5010647;28;20042;-62
2023/04/14 02:00:54;;;;;;;1.23;0.98;;;6.00;99.90;;;;;;5009400;28;20049;-62
2023/04/14 02:03:21;;;;;;;0.10;0.10;;;6.00;99.90;;;;;;5010317;28;20057;-62
2023/04/14 02:05:50;;;;;;;0.10;0.10;;;6.00;99.90;;;;;;5009088;28;20074;-62
2023/04/14 02:08:16;;;;;;;2.00;0.80;;;6.00;99.90;;;;;;5010754;28;20116;-62
2023/04/14 02:10:45;;;;;;;0.10;0.10;;;5.90;99.90;;;;;;5008939;28;20037;-62
2023/04/14 02:13:12;;;;;;;0.10;0.10;;;5.90;99.90;;;;;;5013755;28;20073;-62
2023/04/14 02:15:39;;;;;;;0.10;0.10;;;5.90;99.90;;;;;;5014951;28;20100;-62
2023/04/14 02:18:06;;;;;;;0.32;0.32;;;5.90;99.90;;;;;;5016425;28;20401;-62
2023/04/14 02:20:32;;;;;;;0.10;0.10;;;5.90;99.90;;;;;;5016252;28;20046;-62
2023/04/14 02:22:59;;;;;;;0.10;0.10;;;5.90;99.90;;;;;;5023907;28;20041;-62
2023/04/14 02:25:31;;;;;;;0.10;0.10;;;5.80;99.90;;;;;;5012919;28;20042;-62
2023/04/14 02:28:04;;;;;;;0.00;0.00;;;5.90;99.90;;;;;;5012916;28;20042;-62
2023/04/14 02:30:34;;;;;;;0.15;0.15;;;5.80;99.90;;;;;;5013316;28;20042;-62
2023/04/14 02:33:04;;;;;;;0.10;0.10;;;5.80;99.90;;;;;;5026418;28;20046;-62
2023/04/14 02:35:38;;;;;;;0.68;0.68;;;5.80;99.90;;;;;;5012924;28;20041;-62
2023/04/14 02:38:12;;;;;;;1.27;0.98;;;5.80;99.90;;;;;;5025223;28;20123;-62
2023/04/14 02:40:40;;;;;;;0.10;0.10;;;5.80;99.90;;;;;;5026070;28;20033;-62
2023/04/14 02:43:28;;;;;;;0.60;0.60;;;5.70;99.90;;;;;;5018190;28;20096;-62
2023/04/14 02:45:55;;;;;;;0.10;0.10;;;5.70;99.90;;;;;;5025617;28;20049;-62
2023/04/14 02:48:25;;;;;;;0.10;0.10;;;5.70;99.90;;;;;;5011890;28;20056;-62
2023/04/14 02:50:53;;;;;;;0.82;0.82;;;5.70;99.90;;;;;;5011658;28;20133;-62
2023/04/14 02:53:24;;;;;;;0.75;0.75;;;5.70;99.90;;;;;;5013316;28;20069;-62
2023/04/14 02:55:53;;;;;;;0.10;0.10;;;5.60;99.90;;;;;;5013303;28;20129;-62
2023/04/14 02:58:19;;;;;;;0.38;0.38;;;5.60;99.90;;;;;;5023726;28;20141;-62
2023/04/14 03:00:45;;;;;;;3.60;2.65;;;5.60;99.90;;;;;;5013612;28;20052;-62
2023/04/14 03:03:12;;;;;;;3.42;2.47;;;5.60;99.90;;;;;;5024161;28;20073;-62
2023/04/14 03:05:41;;;;;;;0.20;0.20;;;5.60;99.90;;;;;;5021486;28;20108;-62
2023/04/14 03:08:10;;;;;;;0.10;0.10;;;5.60;99.90;;;;;;5021027;28;20481;-62
2023/04/14 03:10:36;;;;;;;0.10;0.10;;;5.60;99.90;;;;;;5028480;28;20409;-62
2023/04/14 03:13:03;;;;;;;0.10;0.10;;;5.50;99.90;;;;;;5011843;28;20065;-62
2023/04/14 03:15:30;;;;;;;0.10;0.10;;;5.50;99.90;;;;;;5013149;28;20061;-62
2023/04/14 03:17:57;;;;;;;2.17;0.80;;;5.50;99.90;;;;;;5011963;28;20050;-62
2023/04/14 03:20:24;;;;;;;0.10;0.10;;;5.40;99.90;;;;;;5012021;28;20051;-62
2023/04/14 03:23:05;;;;;;;0.10;0.10;;;5.50;99.90;;;;;;5017843;28;20397;-62
2023/04/14 03:25:36;;;;;;;0.10;0.10;;;5.50;99.90;;;;;;5019253;28;20052;-62
2023/04/14 03:28:05;;;;;;;0.80;0.80;;;5.50;99.90;;;;;;5013704;28;20053;-62
2023/04/14 03:30:33;;;;;;;0.10;0.10;;;5.50;99.90;;;;;;5011543;28;20054;-62
2023/04/14 03:33:05;;;;;;;0.10;0.10;;;5.50;99.90;;;;;;5012275;28;20044;-62
2023/04/14 03:35:31;;;;;;;0.10;0.10;;;5.50;99.90;;;;;;5011346;28;20041;-62
2023/04/14 03:38:01;;;;;;;0.95;0.85;;;5.50;99.90;;;;;;5017518;28;20084;-62
2023/04/14 03:40:30;;;;;;;0.10;0.10;;;5.40;99.90;;;;;;5011176;28;20100;-62
2023/04/14 03:43:01;;;;;;;0.20;0.20;;;5.40;99.90;;;;;;5012451;28;20050;-62
2023/04/14 03:45:27;;;;;;;0.10;0.10;;;5.40;99.90;;;;;;5011349;28;20049;-62
2023/04/14 03:47:59;;;;;;;0.10;0.10;;;5.40;99.90;;;;;;5011901;28;20050;-62
2023/04/14 03:50:30;;;;;;;0.30;0.30;;;5.40;99.90;;;;;;5020233;28;20103;-62
2023/04/14 03:52:58;;;;;;;0.40;0.40;;;5.40;99.90;;;;;;5025942;28;20489;-62
2023/04/14 03:55:26;;;;;;;0.10;0.10;;;5.50;99.90;;;;;;5012254;28;20433;-62
2023/04/14 03:57:55;;;;;;;0.10;0.10;;;5.50;99.90;;;;;;5011330;28;20049;-62
2023/04/14 04:00:21;;;;;;;0.10;0.10;;;5.40;99.90;;;;;;5011749;28;20402;-62
2023/04/14 04:02:48;;;;;;;0.85;0.73;;;5.40;99.90;;;;;;5011844;28;20113;-62
2023/04/14 04:05:14;;;;;;;0.47;0.47;;;5.30;99.90;;;;;;5009599;28;20102;-62
2023/04/14 04:07:41;;;;;;;0.32;0.30;;;5.40;99.90;;;;;;5015071;28;20045;-62
2023/04/14 04:10:08;;;;;;;0.15;0.15;;;5.40;99.90;;;;;;5011458;28;20037;-62
2023/04/14 04:12:36;;;;;;;0.30;0.30;;;5.30;99.90;;;;;;5011603;28;20057;-62
2023/04/14 04:15:02;;;;;;;0.10;0.10;;;5.30;99.90;;;;;;5010132;28;20053;-62
2023/04/14 04:17:30;;;;;;;0.00;0.00;;;5.30;99.90;;;;;;5011486;28;20042;-62
2023/04/14 04:19:57;;;;;;;0.10;0.10;;;5.30;99.90;;;;;;5012390;28;20061;-62
2023/04/14 04:22:25;;;;;;;0.10;0.10;;;5.30;99.90;;;;;;5016009;28;20124;-62
2023/04/14 04:24:53;;;;;;;0.30;0.30;;;5.30;99.90;;;;;;5010544;28;20038;-62
2023/04/14 04:27:20;;;;;;;0.10;0.10;;;5.30;99.90;;;;;;5023842;28;20560;-62
2023/04/14 04:29:46;;;;;;;0.10;0.10;;;5.30;99.90;;;;;;5010937;28;20069;-62
2023/04/14 04:32:12;;;;;;;2.50;1.55;;;5.40;99.90;;;;;;5020491;28;20053;-62
2023/04/14 04:34:39;;;;;;;1.30;0.85;;;5.30;99.90;;;;;;5012086;28;20099;-62
2023/04/14 04:37:05;;;;;;;1.98;0.55;;;5.40;99.90;;;;;;5010509;28;20425;-62
2023/04/14 04:39:31;;;;;;;5.50;0.90;;;5.40;99.90;;;;;;5028385;28;20103;-62
2023/04/14 04:42:06;;;;;;;0.10;0.10;;;5.40;99.90;;;;;;5015284;28;20045;-62
2023/04/14 04:44:33;;;;;;;0.35;0.35;;;5.50;99.90;;;;;;5008232;28;20037;-62
2023/04/14 04:46:59;;;;;;;0.10;0.10;;;5.60;99.90;;;;;;5013879;28;20406;-62
2023/04/14 04:49:25;;;;;;;0.65;0.65;;;5.60;99.90;;;;;;5014658;28;20576;-62
2023/04/14 04:51:51;;;;;;;0.00;0.00;;;5.60;99.90;;;;;;5013063;28;20144;-62
2023/04/14 04:54:17;;;;;;;0.40;0.40;;;5.60;99.90;;;;;;5015768;28;20068;-62
2023/04/14 04:56:42;;;;;;;0.45;0.45;;;5.70;99.90;;;;;;5010512;28;20060;-62
2023/04/14 04:59:08;;;;;;;0.40;0.40;;;5.70;99.90;;;;;;5010826;28;20088;-62
2023/04/14 05:01:34;;;;;;;0.10;0.10;;;5.60;99.90;;;;;;5011635;28;20064;-62
2023/04/14 05:04:00;;;;;;;0.10;0.10;;;5.60;99.90;;;;;;5009935;28;20034;-62
2023/04/14 05:06:27;;;;;;;0.10;0.10;;;5.60;99.90;;;;;;5010976;28;20046;-62
2023/04/14 05:08:55;;;;;;;0.20;0.20;;;5.70;99.90;;;;;;5016154;28;20052;-62
2023/04/14 05:11:22;;;;;;;0.10;0.10;;;5.60;99.90;;;;;;5007398;28;20058;-62
2023/04/14 05:13:48;;;;;;;0.20;0.20;;;5.70;99.90;;;;;;5010089;28;20132;-62
2023/04/14 05:16:13;;;;;;;0.10;0.10;;;5.70;99.90;;;;;;5011035;28;20125;-62
2023/04/14 05:18:40;;;;;;;0.10;0.10;;;5.70;99.90;;;;;;5010596;28;20045;-62
2023/04/14 05:21:08;;;;;;;0.57;0.57;;;5.70;99.90;;;;;;5013422;28;20058;-62
2023/04/14 05:23:35;;;;;;;0.10;0.10;;;5.70;99.90;;;;;;5009440;28;20100;-62
2023/04/14 05:26:01;;;;;;;0.10;0.10;;;5.80;99.90;;;;;;5011681;28;20050;-62
2023/04/14 05:28:27;;;;;;;0.30;0.30;;;5.70;99.90;;;;;;5010099;28;20041;-62
2023/04/14 05:30:53;;;;;;;0.10;0.10;;;5.80;99.90;;;;;;5010347;28;20050;-62
2023/04/14 05:33:19;;;;;;;0.38;0.38;;;5.80;99.90;;;;;;5010276;28;20460;-62
2023/04/14 05:35:46;;;;;;;0.10;0.10;;;5.80;99.90;;;;;;5014387;28;20117;-62
2023/04/14 05:38:12;;;;;;;0.00;0.00;;;5.80;99.90;;;;;;5010948;28;20050;-62
2023/04/14 05:40:38;;;;;;;0.10;0.10;;;5.90;99.90;;;;;;5008783;28;20079;-62
2023/04/14 05:43:03;;;;;;;0.10;0.10;;;5.90;99.90;;;;;;5011039;28;20045;-62
2023/04/14 05:45:29;;;;;;;0.10;0.10;;;5.90;99.90;;;;;;5013485;28;20493;-62
2023/04/14 05:47:55;;;;;;;0.10;0.10;;;5.90;99.90;;;;;;5026907;28;20087;-62
2023/04/14 05:50:21;;;;;;;0.20;0.20;;;6.00;99.90;;;;;;5016769;28;20057;-62
2023/04/14 05:52:47;;;;;;;0.10;0.10;;;6.00;99.90;;;;;;5008526;28;20049;-62
2023/04/14 05:55:13;;;;;;;0.10;0.10;;;6.10;99.90;;;;;;5013562;28;20037;-62
2023/04/14 05:57:39;;;;;;;0.10;0.10;;;6.10;99.90;;;;;;5019873;28;20096;-62
2023/04/14 06:00:07;;;;;;;0.32;0.32;;;6.10;99.90;;;;;;5029558;28;20037;-63
2023/04/14 06:02:33;;;;;;;2.25;1.13;;;6.10;99.90;;;;;;5025356;28;20421;-62
2023/04/14 06:04:58;;;;;;;0.13;0.13;;;6.20;99.90;;;;;;5018657;28;20056;-62
2023/04/14 06:07:24;;;;;;;0.20;0.20;;;6.30;99.90;;;;;;5019566;28;20037;-62
2023/04/14 06:09:50;;;;;;;0.10;0.10;;;6.30;99.90;;;;;;5029265;28;20057;-62
2023/04/14 06:12:15;;;;;;;0.10;0.10;;;6.30;99.90;;;;;;5023927;28;20093;-62
2023/04/14 06:14:41;;;;;;;0.10;0.10;;;6.20;99.90;;;;;;5022602;28;20060;-62
2023/04/14 06:17:07;;;;;;;0.10;0.10;;;6.30;99.90;;;;;;5026728;28;20124;-62
2023/04/14 06:19:32;;;;;;;0.77;0.55;;;6.30;99.90;;;;;;5015475;28;20078;-62
2023/04/14 06:21:58;;;;;;;0.10;0.10;;;6.30;99.90;;;;;;5015353;28;20046;-62
2023/04/14 06:24:23;;;;;;;0.10;0.10;;;6.30;99.90;;;;;;5026383;28;20048;-62
2023/04/14 06:26:49;;;;;;;0.20;0.20;;;6.40;99.90;;;;;;5016233;28;20557;-62
2023/04/14 06:29:14;;;;;;;0.15;0.15;;;6.30;99.90;;;;;;5029110;28;20436;-62
2023/04/14 06:31:40;;;;;;;0.10;0.10;;;6.40;99.90;;;;;;5015188;28;20092;-62
2023/04/14 06:34:06;;;;;;;21.05;1.65;;;6.40;99.90;;;;;;5018060;28;20049;-62
2023/04/14 06:36:31;;;;;;;4.90;1.30;;;6.50;99.90;;;;;;5015696;28;20052;-62
2023/04/14 06:38:57;;;;;;;0.10;0.10;;;6.50;99.90;;;;;;5016068;28;20034;-62
2023/04/14 06:41:23;;;;;;;0.10;0.10;;;6.50;99.90;;;;;;5025940;28;20044;-62
2023/04/14 06:43:49;;;;;;;0.20;0.20;;;6.60;99.90;;;;;;5017941;28;20048;-62
2023/04/14 06:46:16;;;;;;;1.02;0.95;;;6.60;99.90;;;;;;5026439;28;20040;-62
2023/04/14 06:48:42;;;;;;;0.10;0.10;;;6.60;99.90;;;;;;5021828;28;20502;-62
2023/04/14 06:51:11;;;;;;;0.55;0.47;;;6.70;99.90;;;;;;5022069;28;20098;-62
2023/04/14 06:53:37;;;;;;;0.10;0.10;;;6.80;99.90;;;;;;5024466;28;20046;-62
2023/04/14 06:56:02;;;;;;;0.13;0.13;;;6.80;99.90;;;;;;5017355;28;20436;-62
2023/04/14 06:58:28;;;;;;;0.10;0.10;;;6.90;99.90;;;;;;5021751;28;20087;-62
2023/04/14 07:00:57;;;;;;;0.10;0.10;;;6.90;99.90;;;;;;5016443;28;20092;-62
2023/04/14 07:03:24;;;;;;;0.10;0.10;;;7.00;99.90;;;;;;5027025;28;20553;-62
2023/04/14 07:05:50;;;;;;;0.08;0.08;;;7.10;99.90;;;;;;5019905;28;20048;-62
2023/04/14 07:08:17;;;;;;;0.20;0.20;;;7.10;99.90;;;;;;5028033;28;20045;-62
2023/04/14 07:10:42;;;;;;;0.10;0.10;;;7.20;99.90;;;;;;5013018;28;20046;-62
2023/04/14 07:13:08;;;;;;;0.10;0.10;;;7.30;99.90;;;;;;5013398;28;20371;-62
2023/04/14 07:15:34;;;;;;;0.10;0.10;;;7.40;99.90;;;;;;5017005;28;20046;-62
2023/04/14 07:17:59;;;;;;;0.10;0.10;;;7.50;99.90;;;;;;5012318;28;20046;-62
2023/04/14 07:20:25;;;;;;;0.10;0.10;;;7.60;99.90;;;;;;5012297;28;20038;-63
2023/04/14 07:22:51;;;;;;;0.10;0.10;;;7.60;99.90;;;;;;5013368;28;20034;-62
2023/04/14 07:25:17;;;;;;;0.10;0.10;;;7.60;99.90;;;;;;5012205;28;20034;-62
2023/04/14 07:27:43;;;;;;;0.20;0.20;;;7.70;99.90;;;;;;5025175;28;20041;-63
2023/04/14 07:30:08;;;;;;;0.10;0.10;;;7.70;99.90;;;;;;5013031;28;20042;-63
2023/04/14 07:32:34;;;;;;;0.10;0.10;;;7.80;99.90;;;;;;5012023;28;20061;-63
2023/04/14 07:35:00;;;;;;;0.60;0.60;;;7.90;99.90;;;;;;5012584;28;20041;-63
2023/04/14 07:37:25;;;;;;;0.30;0.30;;;8.00;99.90;;;;;;5013460;28;20053;-63
2023/04/14 07:39:51;;;;;;;0.10;0.10;;;8.00;99.90;;;;;;5014439;28;20176;-62
2023/04/14 07:42:17;;;;;;;0.15;0.15;;;8.10;99.90;;;;;;5011636;28;20132;-62
2023/04/14 07:44:42;;;;;;;0.10;0.10;;;8.20;99.90;;;;;;5013518;28;20042;-62
2023/04/14 07:47:08;;;;;;;0.10;0.10;;;8.20;99.90;;;;;;5012296;28;20442;-63
2023/04/14 07:49:35;;;;;;;0.68;0.68;;;8.30;99.90;;;;;;5015811;28;20169;-63
2023/04/14 07:52:01;;;;;;;1.15;1.05;;;8.40;99.90;;;;;;5018908;28;20405;-62
2023/04/14 07:54:27;;;;;;;0.43;0.43;;;8.40;99.90;;;;;;5022251;28;20052;-62
2023/04/14 07:56:52;;;;;;;0.10;0.10;;;8.50;99.90;;;;;;5013528;28;20046;-62
2023/04/14 07:59:18;;;;;;;0.57;0.57;;;8.70;99.90;;;;;;5020034;28;20053;-62
2023/04/14 08:01:44;;;;;;;0.20;0.20;;;8.70;99.90;;;;;;5017784;28;20044;-63
2023/04/14 08:04:10;;;;;;;0.10;0.10;;;8.80;99.90;;;;;;5013174;28;20041;-63
2023/04/14 08:06:35;;;;;;;0.10;0.10;;;8.90;99.90;;;;;;5012833;28;20038;-63
2023/04/14 08:09:01;;;;;;;0.10;0.10;;;8.90;99.90;;;;;;5010385;28;20046;-62
2023/04/14 08:11:26;;;;;;;0.00;0.00;;;9.00;99.90;;;;;;5011802;28;20402;-63
2023/04/14 08:13:52;;;;;;;2.33;2.20;;;9.00;99.90;;;;;;5022114;28;20443;-63
2023/04/14 08:16:18;;;;;;;0.10;0.10;;;9.10;99.90;;;;;;5013283;28;20083;-63
2023/04/14 08:18:44;;;;;;;0.47;0.47;;;9.20;99.90;;;;;;5021041;28;20408;-63
2023/04/14 08:21:10;;;;;;;0.10;0.10;;;9.40;99.90;;;;;;5020387;28;20038;-63
2023/04/14 08:23:36;;;;;;;1.55;1.00;;;9.60;99.90;;;;;;5012671;28;20052;-63
2023/04/14 08:26:02;;;;;;;0.10;0.10;;;10.20;99.90;;;;;;5015530;28;20116;-63
2023/04/14 08:28:28;;;;;;;0.10;0.10;;;10.80;99.90;;;;;;5033761;28;20043;-63
2023/04/14 08:30:54;;;;;;;0.10;0.10;;;11.70;99.90;;;;;;5033998;28;20041;-63
2023/04/14 08:33:20;;;;;;;0.10;0.10;;;12.50;99.90;;;;;;5037018;28;20418;-63
2023/04/14 08:35:45;;;;;;;0.10;0.10;;;12.90;99.90;;;;;;5014246;28;20060;-62
2023/04/14 08:38:11;;;;;;;2.08;1.58;;;13.50;99.90;;;;;;5018897;28;20388;-63
2023/04/14 08:40:41;;;;;;;0.05;0.05;;;14.00;99.90;;;;;;5026726;28;20041;-64
2023/04/14 08:43:07;;;;;;;0.10;0.10;;;14.30;99.90;;;;;;5011700;28;20564;-64
2023/04/14 08:45:33;;;;;;;0.10;0.10;;;14.70;99.90;;;;;;5016094;28;20057;-63
2023/04/14 08:48:01;;;;;;;0.10;0.10;;;15.00;99.90;;;;;;5020839;28;20041;-65
2023/04/14 08:50:44;;;;;;;0.10;0.10;;;15.00;99.90;;;;;;5021071;28;20458;-63
2023/04/14 08:53:12;;;;;;;0.55;0.55;;;15.50;99.90;;;;;;5039065;28;20089;-63
2023/04/14 08:55:40;;;;;;;0.10;0.10;;;15.50;99.90;;;;;;5020293;28;20038;-63
2023/04/14 08:58:09;;;;;;;0.20;0.20;;;15.50;99.90;;;;;;5011803;28;20049;-64
2023/04/14 09:00:34;;;;;;;1.13;1.10;;;15.80;99.90;;;;;;5024929;28;20124;-64
2023/04/14 09:03:00;;;;;;;0.10;0.10;;;16.00;99.90;;;;;;5023121;28;20145;-63
2023/04/14 09:05:27;;;;;;;0.30;0.30;;;15.80;99.90;;;;;;5019759;28;20045;-64
2023/04/14 09:07:53;;;;;;;6.85;1.95;;;16.10;99.90;;;;;;5017330;28;20049;-63
2023/04/14 09:10:21;;;;;;;0.30;0.30;;;15.90;99.90;;;;;;5012457;28;20171;-64
2023/04/14 09:12:47;;;;;;;0.28;0.28;;;16.20;99.90;;;;;;5011055;28;20048;-64
2023/04/14 09:15:13;;;;;;;0.80;0.40;;;16.20;99.90;;;;;;5029246;28;20037;-64
2023/04/14 09:17:39;;;;;;;1.25;0.45;;;16.30;99.90;;;;;;5019884;28;20038;-63
2023/04/14 09:20:05;;;;;;;24.75;0.85;;;16.20;99.90;;;;;;5010555;28;20037;-63
2023/04/14 09:22:32;;;;;;;0.63;0.63;;;16.10;99.90;;;;;;5018049;28;20046;-63
2023/04/14 09:24:58;;;;;;;0.13;0.13;;;16.60;99.90;;;;;;5016145;28;20056;-63
2023/04/14 09:27:25;;;;;;;0.63;0.63;;;16.70;99.90;;;;;;5021787;28;20045;-63
2023/04/14 09:29:52;;;;;;;0.10;0.10;;;16.70;99.90;;;;;;5020969;28;20406;-63
2023/04/14 09:32:18;;;;;;;0.35;0.35;;;16.80;99.90;;;;;;5015038;28;20084;-64
2023/04/14 09:34:53;;;;;;;0.55;0.55;;;16.90;99.90;;;;;;5009441;28;20034;-63
2023/04/14 09:37:19;;;;;;;1.55;1.27;;;16.80;99.80;;;;;;5010337;28;20045;-63
2023/04/14 09:39:54;;;;;;;0.80;0.55;;;17.00;99.90;;;;;;5015423;28;20451;-62
2023/04/14 09:42:39;;;;;;;1.20;0.77;;;17.00;99.90;;;;;;5017782;28;20050;-62
2023/04/14 09:45:07;;;;;;;0.52;0.40;;;17.20;99.90;;;;;;5011305;28;20042;-62
2023/04/14 09:47:32;;;;;;;0.82;0.82;;;17.10;97.60;;;;;;5016780;28;20041;-62
2023/04/14 09:50:03;;;;;;;0.10;0.10;;;17.30;97.60;;;;;;5021705;28;20033;-63
2023/04/14 09:52:37;;;;;;;1.08;0.98;;;17.10;97.50;;;;;;5014102;28;20053;-63
2023/04/14 09:55:14;;;;;;;0.10;0.10;;;17.10;98.20;;;;;;5016163;28;20481;-62
2023/04/14 09:57:43;;;;;;;0.10;0.10;;;17.30;98.50;;;;;;5009809;28;20057;-63
2023/04/14 10:00:15;;;;;;;0.00;0.00;;;17.10;97.10;;;;;;5014012;28;20049;-62
2023/04/14 10:02:54;;;;;;;0.50;0.50;;;17.40;97.70;;;;;;5010940;28;20045;-62
2023/04/14 10:05:25;;;;;;;0.65;0.55;;;17.20;97.60;;;;;;5029768;28;20039;-62
2023/04/14 10:07:50;;;;;;;0.10;0.10;;;17.10;97.40;;;;;;5014745;28;20039;-62
2023/04/14 10:10:16;;;;;;;0.00;0.00;;;17.10;96.40;;;;;;5009889;28;20042;-62
2023/04/14 10:12:45;;;;;;;0.10;0.10;;;17.00;97.20;;;;;;5009660;28;20042;-62
2023/04/14 10:15:11;;;;;;;0.10;0.10;;;17.30;96.30;;;;;;5023633;28;20049;-62
2023/04/14 10:17:41;;;;;;;0.10;0.10;;;17.20;97.10;;;;;;5009117;28;20050;-63
2023/04/14 10:20:07;;;;;;;0.30;0.30;;;17.20;95.40;;;;;;5009697;28;20521;-62
2023/04/14 10:22:34;;;;;;;0.00;0.00;;;16.80;96.00;;;;;;5007957;28;20042;-62
2023/04/14 10:25:00;;;;;;;0.00;0.00;;;16.70;96.80;;;;;;5009254;28;20038;-62
2023/04/14 10:27:29;;;;;;;0.00;0.00;;;16.80;95.60;;;;;;5009883;28;20409;-62
2023/04/14 10:29:55;;;;;;;0.10;0.10;;;16.50;95.20;;;;;;5008952;28;20038;-63
2023/04/14 10:32:22;;;;;;;0.10;0.10;;;16.50;95.60;;;;;;5009567;28;20070;-62
2023/04/14 10:35:09;;;;;;;0.28;0.28;;;16.80;95.50;;;;;;5013647;28;20084;-62
2023/04/14 10:37:35;;;;;;;14.60;0.47;;;16.80;96.50;;;;;;5014412;28;20380;-62
2023/04/14 10:40:06;;;;;;;0.10;0.10;;;16.30;96.10;;;;;;5007689;28;20053;-62
2023/04/14 10:42:51;;;;;;;0.00;0.00;;;16.30;97.30;;;;;;5008944;28;20057;-63
2023/04/14 10:45:17;;;;;;;0.00;0.00;;;16.30;97.00;;;;;;5014495;28;20049;-62
2023/04/14 10:47:44;;;;;;;0.10;0.10;;;16.20;96.00;;;;;;5023433;28;20504;-62
2023/04/14 10:50:16;;;;;;;0.10;0.10;;;16.10;95.90;;;;;;5025920;28;20068;-63
2023/04/14 10:52:50;;;;;;;0.00;0.00;;;16.00;96.30;;;;;;5013328;28;20507;-62
2023/04/14 10:55:20;;;;;;;0.10;0.10;;;16.20;96.20;;;;;;5012642;28;20608;-62
2023/04/14 10:57:45;;;;;;;0.10;0.10;;;16.00;96.20;;;;;;5012640;28;20046;-62
2023/04/14 11:00:25;;;;;;;2.40;0.98;;;15.80;96.80;;;;;;5012546;28;20056;-62
2023/04/14 11:02:55;;;;;;;0.00;0.00;;;15.60;97.60;;;;;;5018674;28;20045;-63
2023/04/14 11:05:21;;;;;;;0.10;0.10;;;15.40;97.80;;;;;;5016172;28;20050;-63
2023/04/14 11:07:49;;;;;;;0.20;0.20;;;15.60;97.40;;;;;;5018016;28;20073;-63
2023/04/14 11:10:23;;;;;;;0.00;0.00;;;16.00;98.20;;;;;;5012218;28;20405;-63
2023/04/14 11:13:12;;;;;;;0.63;0.63;;;15.90;97.90;;;;;;5051587;28;20706;-63
2023/04/14 11:15:56;;;;;;;2.03;1.38;;;15.70;97.30;;;;;;5019466;28;20486;-63
2023/04/14 11:18:40;;;;;;;1.45;1.02;;;15.60;97.50;;;;;;5021955;28;20049;-63
2023/04/14 11:21:09;;;;;;;0.00;0.00;;;15.60;97.50;;;;;;5011847;28;20050;-63
2023/04/14 11:23:35;;;;;;;0.38;0.38;;;15.70;96.10;;;;;;5012348;28;20045;-62
2023/04/14 11:26:03;;;;;;;0.00;0.00;;;15.50;96.90;;;;;;5016849;28;20045;-63
2023/04/14 11:28:34;;;;;;;0.00;0.00;;;15.70;97.40;;;;;;5024836;28;20049;-63
2023/04/14 11:31:01;;;;;;;0.52;0.52;;;15.40;96.40;;;;;;5021455;28;20053;-63
2023/04/14 11:33:32;;;;;;;0.10;0.10;;;15.40;96.00;;;;;;5020125;28;20038;-63
2023/04/14 11:36:00;;;;;;;0.10;0.10;;;15.30;98.10;;;;;;5011443;28;20038;-63
2023/04/14 11:38:26;;;;;;;0.10;0.10;;;15.30;97.60;;;;;;5013046;28;20054;-63
2023/04/14 11:40:53;;;;;;;0.00;0.00;;;15.50;97.80;;;;;;5019479;28;20086;-63
2023/04/14 11:43:19;;;;;;;0.03;0.03;;;16.10;97.40;;;;;;5035375;28;20132;-64
2023/04/14 11:45:46;;;;;;;0.10;0.10;;;16.60;97.60;;;;;;5017907;28;20038;-63
2023/04/14 11:48:15;;;;;;;0.10;0.10;;;16.70;95.00;;;;;;5012743;28;20057;-63
2023/04/14 11:50:42;;;;;;;0.10;0.10;;;16.60;97.20;;;;;;5010255;28;20107;-63
2023/04/14 11:53:13;;;;;;;0.08;0.08;;;16.40;95.60;;;;;;5011589;28;20572;-63
2023/04/14 11:55:44;;;;;;;0.20;0.20;;;16.10;95.70;;;;;;5017766;28;20077;-63
2023/04/14 11:58:11;;;;;;;0.17;0.17;;;16.90;95.60;;;;;;5016821;28;20076;-63
2023/04/14 12:00:37;;;;;;;0.10;0.10;;;17.40;96.60;;;;;;5011003;28;20576;-61
2023/04/14 12:03:03;;;;;;;0.50;0.50;;;17.20;94.30;;;;;;5012369;28;20192;-62
2023/04/14 12:05:32;;;;;;;0.20;0.20;;;17.50;94.90;;;;;;5018944;28;20042;-63
2023/04/14 12:08:03;;;;;;;0.00;0.00;;;17.70;94.30;;;;;;5011082;28;20040;-62
2023/04/14 12:10:29;;;;;;;0.30;0.30;;;18.00;94.30;;;;;;5018320;28;20056;-63
2023/04/14 12:13:03;;;;;;;0.00;0.00;;;17.90;92.90;;;;;;5016660;28;20042;-63
2023/04/14 12:15:35;;;;;;;0.10;0.10;;;17.70;92.50;;;;;;5011379;28;20132;-63
2023/04/14 12:18:02;;;;;;;1.65;0.82;;;17.70;93.30;;;;;;5011872;28;20078;-63
2023/04/14 12:20:40;;;;;;;0.00;0.00;;;18.00;92.00;;;;;;5013985;28;20505;-62
2023/04/14 12:23:06;;;;;;;0.47;0.47;;;18.30;92.80;;;;;;5013945;28;20100;-63
2023/04/14 12:25:32;;;;;;;0.30;0.30;;;18.70;92.10;;;;;;5011775;28;20066;-63
2023/04/14 12:28:00;;;;;;;0.00;0.00;;;18.60;92.50;;;;;;5010112;28;20038;-63
2023/04/14 12:30:26;;;;;;;0.00;0.00;;;17.90;92.20;;;;;;5016623;28;20045;-63
2023/04/14 12:32:52;;;;;;;0.00;0.00;;;18.30;93.90;;;;;;5011075;28;20477;-63
2023/04/14 12:35:25;;;;;;;0.00;0.00;;;18.90;92.90;;;;;;5014504;28;20064;-62
2023/04/14 12:37:51;;;;;;;0.00;0.00;;;19.20;92.20;;;;;;5010952;28;20044;-63
2023/04/14 12:40:17;;;;;;;0.00;0.00;;;19.30;92.70;;;;;;5016015;28;20034;-63
2023/04/14 12:42:49;;;;;;;2.30;0.70;;;19.30;93.50;;;;;;5020767;28;20049;-63
2023/04/14 12:45:15;;;;;;;0.32;0.30;;;19.50;93.90;;;;;;5030779;28;20041;-63
2023/04/14 12:47:53;;;;;;;0.00;0.00;;;19.70;92.80;;;;;;5011180;28;20050;-63
2023/04/14 12:50:27;;;;;;;0.00;0.00;;;19.60;91.50;;;;;;5016370;28;20172;-63
2023/04/14 12:52:54;;;;;;;0.55;0.55;;;19.60;91.80;;;;;;5017510;28;20038;-63
2023/04/14 12:55:28;;;;;;;0.00;0.00;;;19.30;91.60;;;;;;5008779;28;20526;-63
2023/04/14 12:57:54;;;;;;;0.15;0.15;;;19.40;91.40;;;;;;5016692;28;20148;-63